CN98 weather

Walters Camp Airport
Palo Verde, California, United States

Public forecast

Using degrees Fahrenheit for public forecast. Weather courtesy of forecast.io.

METAR (pilot weather report)

Closest report is Blythe Airport, 22.4 nm (41.6 km) N. Retrieved 2019/08/22 03:52 UTC (44 minutes ago):

KBLH 220352Z AUTO 21006KT 10SM CLR 38/M08 A2962 RMK AO2 SLP021 T03831083

TAF (pilot weather forecast)

Forecast is more than 12 hours old.

Closest forecast is Blythe Airport, 22.4 nm (41.6 km) N. Retrieved 2019/08/21 00:30 UTC (1 day ago):

TAF KBLH 212328Z 2200/2224 19009KT P6SM SKC TEMPO 2200/2203 19012G18KT FM220300 23008KT P6SM SKC FM220900 18005KT P6SM SKC FM221700 20015G22KT P6SM SKC